Time;durP1;ratioP1;P1;durP2;ratioP2;P2;SDS_P1;SDS_P2;PMS_P1;PMS_P2;Temp;Humidity;BMP_temperature;BMP_pressure;BME280_temperature;BME280_humidity;BME280_pressure;Samples;Min_cycle;Max_cycle;Signal;HPM_P1;HPM_P2
2022/05/01 00:01:44;;;;;;;;;;;10.80;46.10;;;;;;2380495;53;20126;-70
2022/05/01 00:04:10;;;;;;;;;;;10.80;46.10;;;;;;2359014;53;20074;-74
2022/05/01 00:06:38;;;;;;;;;;;10.80;46.10;;;;;;2592254;52;20067;-72
2022/05/01 00:09:04;;;;;;;;;;;10.80;46.10;;;;;;2369736;53;20655;-70
2022/05/01 00:11:30;;;;;;;;;;;10.70;46.10;;;;;;2378053;53;20133;-73
2022/05/01 00:13:59;;;;;;;;;;;10.70;46.20;;;;;;2362909;53;20119;-72
2022/05/01 00:16:25;;;;;;;;;;;10.70;46.20;;;;;;2372730;53;20080;-73
2022/05/01 00:18:51;;;;;;;;;;;10.60;46.10;;;;;;2467900;52;20091;-73
2022/05/01 00:21:18;;;;;;;;;;;10.60;46.20;;;;;;2357282;53;20090;-72
2022/05/01 00:23:44;;;;;;;;;;;10.60;46.20;;;;;;2356234;53;20082;-74
2022/05/01 00:26:12;;;;;;;;;;;10.60;46.20;;;;;;2602943;52;20082;-71
2022/05/01 00:28:38;;;;;;;;;;;10.50;46.20;;;;;;2379352;53;20077;-73
2022/05/01 00:31:05;;;;;;;;;;;10.50;46.20;;;;;;2378516;53;20185;-70
2022/05/01 00:36:27;;;;;;;;;;;10.50;46.30;;;;;;2379427;53;20133;-74
2022/05/01 00:39:04;;;;;;;;;;;10.50;46.40;;;;;;2398460;52;20646;-71
2022/05/01 00:41:31;;;;;;;;;;;10.40;46.30;;;;;;2379013;53;20125;-72
2022/05/01 00:44:03;;;;;;;;;;;10.40;46.30;;;;;;2489861;52;20189;-70
2022/05/01 00:46:31;;;;;;;;;;;10.40;46.40;;;;;;2609109;52;20166;-72
2022/05/01 00:48:57;;;;;;;;;;;10.40;46.40;;;;;;2378668;53;20086;-71
2022/05/01 00:51:24;;;;;;;;;;;10.40;46.40;;;;;;2377490;53;20098;-72
2022/05/01 00:53:51;;;;;;;;;;;10.40;46.40;;;;;;2364614;53;20370;-74
2022/05/01 00:56:17;;;;;;;;;;;10.30;46.40;;;;;;2561724;52;20073;-74
2022/05/01 00:58:43;;;;;;;;;;;10.30;46.40;;;;;;2380773;53;20121;-70
2022/05/01 01:01:11;;;;;;;;;;;10.30;46.40;;;;;;2369388;53;20073;-73
2022/05/01 01:03:37;;;;;;;;;;;10.20;46.40;;;;;;2381623;52;20067;-71
2022/05/01 01:06:03;;;;;;;;;;;10.20;46.40;;;;;;2373016;53;20152;-70
2022/05/01 01:08:30;;;;;;;;;;;10.20;46.40;;;;;;2366871;53;20458;-70
2022/05/01 01:10:56;;;;;;;;;;;10.20;46.40;;;;;;2404322;52;20070;-71
2022/05/01 01:13:26;;;;;;;;;;;10.10;46.40;;;;;;2381585;53;20098;-73
2022/05/01 01:15:56;;;;;;;;;;;10.10;46.50;;;;;;2367106;53;20136;-71
2022/05/01 01:18:25;;;;;;;;;;;10.10;46.50;;;;;;2381105;53;20062;-70
2022/05/01 01:20:51;;;;;;;;;;;10.10;46.50;;;;;;2366814;53;20070;-71
2022/05/01 01:23:17;;;;;;;;;;;10.00;46.50;;;;;;2497729;52;20058;-72
2022/05/01 01:25:44;;;;;;;;;;;10.00;46.50;;;;;;2357947;53;20050;-69
2022/05/01 01:28:11;;;;;;;;;;;10.00;46.60;;;;;;2353025;53;20074;-72
2022/05/01 01:33:23;;;;;;;;;;;10.00;46.60;;;;;;2354126;53;20162;-69
2022/05/01 01:35:49;;;;;;;;;;;9.90;47.50;;;;;;2358438;53;20170;-73
2022/05/01 01:38:16;;;;;;;;;;;9.90;47.50;;;;;;2354767;53;20146;-73
2022/05/01 01:40:55;;;;;;;;;;;9.90;47.60;;;;;;2355178;53;20186;-71
2022/05/01 01:43:22;;;;;;;;;;;9.90;47.60;;;;;;2559965;52;20681;-72
2022/05/01 01:45:49;;;;;;;;;;;9.90;47.70;;;;;;2359824;53;20123;-70
2022/05/01 01:48:19;;;;;;;;;;;9.80;47.60;;;;;;2375979;53;20114;-72
2022/05/01 01:50:55;;;;;;;;;;;9.80;47.60;;;;;;2366056;53;20069;-71
2022/05/01 01:53:21;;;;;;;;;;;9.80;47.60;;;;;;2370285;53;20073;-70
2022/05/01 01:55:47;;;;;;;;;;;9.80;47.70;;;;;;2357334;53;20079;-73
2022/05/01 01:58:14;;;;;;;;;;;9.80;47.70;;;;;;2375399;53;20106;-74
2022/05/01 02:00:41;;;;;;;;;;;9.80;47.70;;;;;;2353685;53;20130;-71
2022/05/01 02:03:07;;;;;;;;;;;9.80;47.70;;;;;;2417103;52;20102;-71
2022/05/01 02:05:34;;;;;;;;;;;9.80;47.70;;;;;;2379459;53;20075;-72
2022/05/01 02:08:00;;;;;;;;;;;9.70;47.70;;;;;;2352971;53;20078;-73
2022/05/01 02:10:27;;;;;;;;;;;9.70;47.70;;;;;;2471548;52;20079;-73
2022/05/01 02:12:54;;;;;;;;;;;9.70;47.70;;;;;;2368645;53;20636;-74
2022/05/01 02:15:21;;;;;;;;;;;9.70;47.80;;;;;;2355427;53;20231;-73
2022/05/01 02:17:49;;;;;;;;;;;9.70;47.70;;;;;;2377720;53;20058;-71
2022/05/01 02:20:16;;;;;;;;;;;9.70;47.80;;;;;;2380841;53;20212;-73
2022/05/01 02:22:44;;;;;;;;;;;9.60;47.70;;;;;;2494733;52;20109;-71
2022/05/01 02:25:11;;;;;;;;;;;9.60;47.70;;;;;;2386522;53;20125;-72
2022/05/01 02:27:38;;;;;;;;;;;9.60;47.70;;;;;;2627591;52;20126;-74
2022/05/01 02:30:05;;;;;;;;;;;9.50;47.70;;;;;;2381496;53;20082;-72
2022/05/01 02:32:31;;;;;;;;;;;9.50;47.70;;;;;;2371407;53;20134;-70
2022/05/01 02:35:00;;;;;;;;;;;9.50;47.70;;;;;;2381605;53;20101;-74
2022/05/01 02:37:26;;;;;;;;;;;9.50;47.80;;;;;;2382268;53;20082;-72
2022/05/01 02:39:52;;;;;;;;;;;9.50;47.80;;;;;;2381698;53;20078;-72
2022/05/01 02:42:42;;;;;;;;;;;9.40;47.70;;;;;;2364048;53;20123;-70
2022/05/01 02:45:10;;;;;;;;;;;9.40;47.80;;;;;;2388461;53;20307;-70
2022/05/01 02:47:37;;;;;;;;;;;9.40;47.80;;;;;;2432460;52;20137;-71
2022/05/01 02:50:03;;;;;;;;;;;9.40;47.80;;;;;;2483315;52;20078;-74
2022/05/01 02:52:29;;;;;;;;;;;9.40;47.90;;;;;;2383980;53;20069;-73
2022/05/01 02:54:56;;;;;;;;;;;9.40;47.90;;;;;;2367565;53;20074;-72
2022/05/01 02:57:22;;;;;;;;;;;9.30;47.80;;;;;;2503377;52;20126;-73
2022/05/01 02:59:51;;;;;;;;;;;9.30;47.80;;;;;;2372871;53;20389;-71
2022/05/01 03:02:18;;;;;;;;;;;9.30;47.80;;;;;;2372390;53;20134;-73
2022/05/01 03:04:45;;;;;;;;;;;9.30;47.80;;;;;;2367387;53;20375;-72
2022/05/01 03:07:12;;;;;;;;;;;9.20;47.80;;;;;;2381101;53;20065;-72
2022/05/01 03:09:38;;;;;;;;;;;9.20;47.80;;;;;;2614898;52;20467;-72
2022/05/01 03:12:05;;;;;;;;;;;9.20;47.90;;;;;;2372664;53;20089;-72
2022/05/01 03:14:34;;;;;;;;;;;9.20;48.00;;;;;;2379827;53;20102;-73
2022/05/01 03:17:00;;;;;;;;;;;9.20;48.00;;;;;;2364986;53;20078;-71
2022/05/01 03:22:13;;;;;;;;;;;9.20;48.60;;;;;;2502006;53;21165;-71
2022/05/01 03:24:40;;;;;;;;;;;9.10;48.00;;;;;;2360617;53;20134;-73
2022/05/01 03:27:06;;;;;;;;;;;9.10;48.00;;;;;;2355507;53;20501;-72
2022/05/01 03:29:32;;;;;;;;;;;9.10;48.00;;;;;;2473336;52;20066;-74
2022/05/01 03:31:58;;;;;;;;;;;9.10;48.00;;;;;;2365163;53;20086;-72
2022/05/01 03:34:26;;;;;;;;;;;9.10;48.10;;;;;;2378257;53;20176;-74
2022/05/01 03:36:53;;;;;;;;;;;9.10;48.10;;;;;;2378564;53;20663;-71
2022/05/01 03:39:20;;;;;;;;;;;9.10;48.70;;;;;;2550723;52;20109;-72
2022/05/01 03:41:55;;;;;;;;;;;8.90;48.00;;;;;;2420268;52;20082;-74
2022/05/01 03:44:21;;;;;;;;;;;9.00;48.10;;;;;;2384425;53;20129;-71
2022/05/01 03:46:48;;;;;;;;;;;9.00;48.10;;;;;;2360101;53;20410;-73
2022/05/01 03:49:14;;;;;;;;;;;9.00;48.10;;;;;;2485761;52;20154;-70
2022/05/01 03:51:42;;;;;;;;;;;8.90;48.00;;;;;;2615396;52;20123;-73
2022/05/01 03:54:09;;;;;;;;;;;8.90;48.10;;;;;;2372082;53;20077;-72
2022/05/01 03:56:36;;;;;;;;;;;8.90;48.10;;;;;;2373691;53;20713;-73
2022/05/01 03:59:04;;;;;;;;;;;8.90;48.10;;;;;;2377607;53;20058;-72
2022/05/01 04:01:30;;;;;;;;;;;8.90;48.20;;;;;;2449484;52;20122;-71
2022/05/01 04:04:06;;;;;;;;;;;8.90;48.20;;;;;;2443250;52;20370;-72
2022/05/01 04:06:35;;;;;;;;;;;8.90;48.30;;;;;;2378625;53;20133;-71
2022/05/01 04:09:01;;;;;;;;;;;8.90;48.30;;;;;;2538453;52;20069;-70
2022/05/01 04:11:28;;;;;;;;;;;8.80;48.20;;;;;;2368082;53;20130;-72
2022/05/01 04:13:54;;;;;;;;;;;8.80;48.30;;;;;;2351749;53;20075;-71
2022/05/01 04:16:21;;;;;;;;;;;8.80;48.30;;;;;;2350763;53;20174;-73
2022/05/01 04:18:47;;;;;;;;;;;8.80;48.30;;;;;;2353386;53;20913;-73
2022/05/01 04:21:15;;;;;;;;;;;8.80;48.30;;;;;;2549593;52;20667;-73
2022/05/01 04:23:41;;;;;;;;;;;8.80;48.40;;;;;;2351217;53;20703;-70
2022/05/01 04:26:08;;;;;;;;;;;8.80;48.40;;;;;;2364538;53;20190;-70
2022/05/01 04:28:34;;;;;;;;;;;8.80;48.50;;;;;;2582150;52;20147;-71
2022/05/01 04:31:01;;;;;;;;;;;8.80;48.60;;;;;;2356269;53;20057;-71
2022/05/01 04:33:27;;;;;;;;;;;8.80;48.70;;;;;;2380884;53;20125;-71
2022/05/01 04:35:53;;;;;;;;;;;8.80;48.80;;;;;;2351605;53;20094;-71
2022/05/01 04:38:23;;;;;;;;;;;8.80;48.90;;;;;;2360400;53;20086;-69
2022/05/01 04:40:51;;;;;;;;;;;8.90;49.10;;;;;;2360745;53;20081;-73
2022/05/01 04:43:18;;;;;;;;;;;8.90;49.10;;;;;;2371006;53;20087;-73
2022/05/01 04:45:44;;;;;;;;;;;9.00;49.30;;;;;;2618326;52;20146;-72
2022/05/01 04:48:11;;;;;;;;;;;9.00;49.30;;;;;;2380574;53;20145;-73
2022/05/01 04:50:37;;;;;;;;;;;9.10;49.50;;;;;;2352416;53;20079;-72
2022/05/01 04:53:06;;;;;;;;;;;9.10;49.60;;;;;;2360125;53;20075;-73
2022/05/01 04:55:34;;;;;;;;;;;9.20;49.70;;;;;;2401777;52;20492;-73
2022/05/01 04:58:01;;;;;;;;;;;9.30;49.80;;;;;;2363430;53;20732;-73
2022/05/01 05:00:27;;;;;;;;;;;9.30;49.80;;;;;;2377345;53;20065;-72
2022/05/01 05:02:54;;;;;;;;;;;9.40;50.00;;;;;;2378322;53;20074;-72
2022/05/01 05:05:20;;;;;;;;;;;9.50;50.10;;;;;;2354008;53;20125;-72
2022/05/01 05:07:47;;;;;;;;;;;9.60;50.30;;;;;;2377324;53;20141;-72
2022/05/01 05:10:14;;;;;;;;;;;9.70;50.30;;;;;;2371189;53;20994;-74
2022/05/01 05:12:44;;;;;;;;;;;9.70;50.30;;;;;;2485184;52;20196;-73
2022/05/01 05:15:13;;;;;;;;;;;9.80;50.30;;;;;;2500038;52;20070;-72
2022/05/01 05:17:39;;;;;;;;;;;9.90;50.30;;;;;;2452558;52;20106;-74
2022/05/01 05:20:06;;;;;;;;;;;10.00;49.50;;;;;;2365985;53;20109;-72
2022/05/01 05:22:38;;;;;;;;;;;10.10;49.60;;;;;;2375778;53;20134;-74
2022/05/01 05:25:07;;;;;;;;;;;10.10;49.60;;;;;;2608952;52;20179;-73
2022/05/01 05:27:33;;;;;;;;;;;10.20;49.70;;;;;;2357030;53;20081;-72
2022/05/01 05:30:00;;;;;;;;;;;10.30;49.80;;;;;;2388493;53;20881;-72
2022/05/01 05:32:29;;;;;;;;;;;10.40;49.80;;;;;;2387212;52;20710;-74
2022/05/01 05:34:56;;;;;;;;;;;10.50;49.90;;;;;;2372100;53;20366;-75
2022/05/01 05:37:23;;;;;;;;;;;10.60;50.00;;;;;;2368075;53;20081;-71
2022/05/01 05:39:49;;;;;;;;;;;10.70;50.00;;;;;;2351456;53;20644;-72
2022/05/01 05:42:16;;;;;;;;;;;10.80;50.10;;;;;;2428710;52;20117;-73
2022/05/01 05:44:43;;;;;;;;;;;10.90;50.10;;;;;;2431235;52;20081;-75
2022/05/01 05:47:10;;;;;;;;;;;11.00;50.10;;;;;;2377011;53;20631;-72
2022/05/01 05:49:36;;;;;;;;;;;11.10;50.20;;;;;;2487934;52;20082;-72
2022/05/01 05:52:02;;;;;;;;;;;11.20;50.20;;;;;;2528243;52;20118;-74
2022/05/01 05:54:28;;;;;;;;;;;11.20;50.10;;;;;;2367044;53;20081;-73
2022/05/01 05:56:55;;;;;;;;;;;11.30;50.20;;;;;;2355407;53;20102;-74
2022/05/01 05:59:24;;;;;;;;;;;11.40;50.20;;;;;;2485513;52;20093;-73
2022/05/01 06:01:54;;;;;;;;;;;11.50;50.20;;;;;;2380127;53;20073;-72
2022/05/01 06:04:20;;;;;;;;;;;11.60;50.30;;;;;;2374399;53;20077;-75
2022/05/01 06:06:47;;;;;;;;;;;11.70;50.30;;;;;;2440602;52;20066;-73
2022/05/01 06:09:13;;;;;;;;;;;11.80;50.30;;;;;;2374068;53;20130;-72
2022/05/01 06:11:39;;;;;;;;;;;11.80;50.20;;;;;;2473639;52;20069;-73
2022/05/01 06:14:06;;;;;;;;;;;11.90;50.20;;;;;;2387509;53;20078;-73
2022/05/01 06:16:32;;;;;;;;;;;12.00;50.20;;;;;;2373843;53;20074;-72
2022/05/01 06:18:59;;;;;;;;;;;12.00;50.10;;;;;;2377855;52;20198;-74
2022/05/01 06:21:25;;;;;;;;;;;12.10;50.00;;;;;;2369763;53;20070;-75
2022/05/01 06:23:52;;;;;;;;;;;12.20;50.10;;;;;;2476308;52;20142;-72
2022/05/01 06:26:19;;;;;;;;;;;12.20;50.00;;;;;;2358750;53;20186;-72
2022/05/01 06:28:49;;;;;;;;;;;12.30;50.00;;;;;;2384849;53;20480;-72
2022/05/01 06:31:15;;;;;;;;;;;12.30;49.90;;;;;;2358392;52;20078;-74
2022/05/01 06:33:41;;;;;;;;;;;12.40;49.90;;;;;;2343660;53;20229;-72
2022/05/01 06:36:08;;;;;;;;;;;12.40;49.80;;;;;;2355531;53;20086;-72
2022/05/01 06:38:34;;;;;;;;;;;12.40;49.90;;;;;;2378061;53;20069;-72
2022/05/01 06:41:01;;;;;;;;;;;12.50;50.00;;;;;;2355068;52;20143;-74
2022/05/01 06:43:27;;;;;;;;;;;12.50;49.90;;;;;;2459408;52;20066;-73
2022/05/01 06:45:54;;;;;;;;;;;12.60;50.00;;;;;;2379673;53;20117;-72
2022/05/01 06:48:21;;;;;;;;;;;12.60;50.00;;;;;;2383652;52;20081;-72
2022/05/01 06:50:47;;;;;;;;;;;12.70;50.00;;;;;;2384929;52;20134;-71
2022/05/01 06:53:14;;;;;;;;;;;12.70;50.00;;;;;;2386085;53;20220;-74
2022/05/01 06:55:44;;;;;;;;;;;12.80;50.10;;;;;;2380171;53;20105;-72
2022/05/01 06:58:12;;;;;;;;;;;12.80;50.10;;;;;;2381417;53;20109;-75
2022/05/01 07:00:39;;;;;;;;;;;12.90;50.10;;;;;;2375641;52;20118;-72
2022/05/01 07:03:06;;;;;;;;;;;13.00;50.10;;;;;;2457598;53;20423;-73
2022/05/01 07:05:32;;;;;;;;;;;13.00;50.10;;;;;;2396604;52;20062;-73
2022/05/01 07:07:58;;;;;;;;;;;13.10;50.10;;;;;;2460890;52;20085;-73
2022/05/01 07:10:25;;;;;;;;;;;13.10;50.10;;;;;;2469866;52;20083;-74
2022/05/01 07:12:51;;;;;;;;;;;13.20;50.10;;;;;;2369418;53;20155;-75
2022/05/01 07:15:17;;;;;;;;;;;13.30;50.20;;;;;;2424017;52;20074;-71
2022/05/01 07:17:44;;;;;;;;;;;13.30;50.30;;;;;;2501891;52;20086;-72
2022/05/01 07:20:11;;;;;;;;;;;13.40;50.30;;;;;;2376856;53;20121;-75
2022/05/01 07:22:40;;;;;;;;;;;13.50;50.30;;;;;;2387788;52;20069;-75
2022/05/01 07:25:06;;;;;;;;;;;13.60;50.30;;;;;;2616986;52;20183;-74
2022/05/01 07:27:33;;;;;;;;;;;13.60;50.30;;;;;;2378759;53;20129;-75
2022/05/01 07:29:59;;;;;;;;;;;13.70;50.30;;;;;;2624677;52;20067;-75
2022/05/01 07:32:25;;;;;;;;;;;13.80;50.40;;;;;;2372803;52;20094;-74
2022/05/01 07:34:51;;;;;;;;;;;13.80;50.40;;;;;;2343642;53;20071;-72
2022/05/01 07:37:20;;;;;;;;;;;13.90;50.50;;;;;;2347948;53;20257;-75
2022/05/01 07:39:46;;;;;;;;;;;14.00;50.60;;;;;;2458486;52;20063;-74
2022/05/01 07:42:16;;;;;;;;;;;14.10;50.60;;;;;;2397968;52;20110;-75
2022/05/01 07:44:42;;;;;;;;;;;14.20;50.60;;;;;;2387219;52;20117;-76
2022/05/01 07:47:08;;;;;;;;;;;14.30;50.60;;;;;;2379908;53;20086;-74
2022/05/01 07:49:35;;;;;;;;;;;14.40;50.70;;;;;;2364749;53;20130;-74
2022/05/01 07:52:01;;;;;;;;;;;14.50;50.70;;;;;;2571499;52;20416;-73
2022/05/01 07:54:27;;;;;;;;;;;14.50;50.60;;;;;;2378245;53;20121;-72
2022/05/01 07:56:54;;;;;;;;;;;14.70;50.80;;;;;;2432564;52;20482;-72
2022/05/01 07:59:20;;;;;;;;;;;14.80;50.80;;;;;;2493575;52;20121;-73
2022/05/01 08:01:47;;;;;;;;;;;14.90;50.80;;;;;;2504790;52;20094;-72
2022/05/01 08:04:28;;;;;;;;;;;15.00;50.80;;;;;;2380173;53;20161;-72
2022/05/01 08:06:58;;;;;;;;;;;15.10;50.90;;;;;;2371884;53;20078;-73
2022/05/01 08:09:42;;;;;;;;;;;15.20;50.90;;;;;;2370603;53;20078;-73
2022/05/01 08:12:11;;;;;;;;;;;15.30;50.80;;;;;;2377104;53;20062;-72
2022/05/01 08:14:41;;;;;;;;;;;15.40;50.80;;;;;;2422852;52;20110;-73
2022/05/01 08:17:08;;;;;;;;;;;15.50;50.80;;;;;;2376581;53;20142;-75
2022/05/01 08:22:19;;;;;;;;;;;15.80;51.00;;;;;;2382722;53;20154;-72
2022/05/01 08:24:45;;;;;;;;;;;15.90;50.80;;;;;;2382623;53;20104;-73
2022/05/01 08:27:12;;;;;;;;;;;16.00;50.70;;;;;;2431473;52;20079;-72
2022/05/01 08:29:38;;;;;;;;;;;16.10;50.50;;;;;;2416041;53;20679;-72
2022/05/01 08:32:05;;;;;;;;;;;16.20;50.50;;;;;;2360166;53;20062;-73
2022/05/01 08:34:31;;;;;;;;;;;16.20;50.40;;;;;;2594571;52;20062;-72
2022/05/01 08:36:58;;;;;;;;;;;16.30;50.40;;;;;;2414190;53;20069;-72
2022/05/01 08:39:25;;;;;;;;;;;16.40;50.40;;;;;;2360357;53;20054;-75
2022/05/01 08:41:52;;;;;;;;;;;16.40;50.30;;;;;;2403043;53;20094;-74
2022/05/01 08:44:21;;;;;;;;;;;16.50;50.30;;;;;;2378128;53;20085;-75
2022/05/01 08:46:57;;;;;;;;;;;16.60;50.20;;;;;;2421434;52;20130;-73
2022/05/01 08:49:23;;;;;;;;;;;16.50;50.10;;;;;;2453219;52;20557;-73
2022/05/01 08:51:50;;;;;;;;;;;16.60;50.10;;;;;;2387119;53;20085;-73
2022/05/01 08:54:17;;;;;;;;;;;16.70;50.70;;;;;;2384313;53;20074;-75
2022/05/01 08:56:43;;;;;;;;;;;16.70;50.00;;;;;;2379253;53;20444;-74
2022/05/01 08:59:14;;;;;;;;;;;16.80;50.10;;;;;;2375910;53;20090;-74
2022/05/01 09:01:42;;;;;;;;;;;16.80;50.10;;;;;;2546783;52;20054;-74
2022/05/01 09:04:09;;;;;;;;;;;16.90;50.10;;;;;;2402462;52;20679;-73
2022/05/01 09:06:36;;;;;;;;;;;16.90;50.00;;;;;;2366174;53;20251;-74
2022/05/01 09:09:08;;;;;;;;;;;17.10;50.10;;;;;;2418155;53;20169;-74
2022/05/01 09:14:26;;;;;;;;;;;17.20;50.10;;;;;;2372607;53;20146;-73
2022/05/01 09:17:11;;;;;;;;;;;17.20;50.10;;;;;;2353165;53;20175;-73
2022/05/01 09:19:40;;;;;;;;;;;17.30;50.10;;;;;;2334774;53;20194;-73
2022/05/01 09:22:07;;;;;;;;;;;17.40;50.30;;;;;;2549192;53;20201;-72
2022/05/01 09:24:33;;;;;;;;;;;17.50;50.60;;;;;;2450014;52;20109;-73
2022/05/01 09:27:00;;;;;;;;;;;17.70;51.00;;;;;;2403596;53;20066;-74
2022/05/01 09:29:32;;;;;;;;;;;18.00;51.40;;;;;;2346955;53;21038;-73
2022/05/01 09:32:03;;;;;;;;;;;18.20;51.40;;;;;;2443645;52;20106;-74
2022/05/01 09:34:33;;;;;;;;;;;18.40;51.20;;;;;;2386716;53;20125;-73
2022/05/01 09:37:00;;;;;;;;;;;18.60;51.10;;;;;;2379487;53;20279;-75
2022/05/01 09:39:27;;;;;;;;;;;18.70;51.00;;;;;;2376675;53;20210;-73
2022/05/01 09:41:54;;;;;;;;;;;19.00;50.90;;;;;;2385017;53;20662;-74
2022/05/01 09:44:21;;;;;;;;;;;19.10;50.70;;;;;;2379809;53;20097;-73
2022/05/01 09:46:48;;;;;;;;;;;19.30;50.50;;;;;;2366078;53;20133;-74
2022/05/01 09:49:15;;;;;;;;;;;19.40;50.30;;;;;;2421273;52;20069;-74
2022/05/01 09:51:43;;;;;;;;;;;19.40;49.90;;;;;;2368205;53;20141;-73
2022/05/01 09:54:09;;;;;;;;;;;19.40;49.60;;;;;;2380928;53;20137;-74
2022/05/01 09:56:48;;;;;;;;;;;19.50;49.40;;;;;;2380605;53;20066;-73
2022/05/01 09:59:15;;;;;;;;;;;19.50;49.40;;;;;;2379428;53;20078;-72
2022/05/01 10:01:55;;;;;;;;;;;19.60;49.60;;;;;;2382884;52;20116;-72
2022/05/01 10:04:23;;;;;;;;;;;19.70;50.00;;;;;;2370627;53;20073;-73
2022/05/01 10:06:55;;;;;;;;;;;19.90;50.20;;;;;;2377289;53;20081;-74
2022/05/01 10:09:22;;;;;;;;;;;20.00;50.10;;;;;;2424542;53;20126;-74
2022/05/01 10:11:49;;;;;;;;;;;20.20;50.10;;;;;;2383758;53;20070;-74
2022/05/01 10:14:17;;;;;;;;;;;20.30;50.00;;;;;;2363057;53;20065;-73
2022/05/01 10:16:43;;;;;;;;;;;20.40;49.60;;;;;;2372889;53;20187;-74
2022/05/01 10:19:09;;;;;;;;;;;20.50;49.40;;;;;;2382604;53;20077;-73
2022/05/01 10:21:46;;;;;;;;;;;20.60;49.30;;;;;;2455601;52;20090;-73
2022/05/01 10:24:13;;;;;;;;;;;20.60;48.80;;;;;;2363558;53;20066;-73
2022/05/01 10:27:28;;;;;;;;;;;20.60;48.60;;;;;;2377169;53;20058;-73
2022/05/01 10:35:57;;;;;;;;;;;20.70;48.60;;;;;;2377046;53;20137;-74
2022/05/01 10:45:11;;;;;;;;;;;20.60;48.60;;;;;;2415213;53;20440;-74
2022/05/01 10:47:38;;;;;;;;;;;20.70;48.10;;;;;;2367552;53;20082;-75
2022/05/01 10:50:05;;;;;;;;;;;20.60;48.00;;;;;;2374576;53;20074;-73
2022/05/01 10:52:33;;;;;;;;;;;20.70;48.40;;;;;;2374456;53;20090;-73
2022/05/01 10:55:05;;;;;;;;;;;20.80;48.50;;;;;;2335210;53;20083;-75
2022/05/01 10:57:31;;;;;;;;;;;20.80;48.50;;;;;;2363197;53;20061;-74
2022/05/01 11:00:03;;;;;;;;;;;20.90;48.40;;;;;;2371507;53;20061;-75
2022/05/01 11:02:31;;;;;;;;;;;21.00;48.30;;;;;;2375305;53;20271;-75
2022/05/01 11:04:57;;;;;;;;;;;21.10;48.40;;;;;;2455165;52;20551;-74
2022/05/01 11:07:25;;;;;;;;;;;21.10;48.10;;;;;;2354365;53;20133;-74
2022/05/01 11:09:51;;;;;;;;;;;21.10;47.80;;;;;;2372643;53;20129;-73
2022/05/01 11:12:19;;;;;;;;;;;21.10;47.40;;;;;;2448511;52;20069;-75
2022/05/01 11:14:53;;;;;;;;;;;21.10;47.10;;;;;;2376164;53;20322;-74
2022/05/01 11:18:03;;;;;;;;;;;21.00;47.00;;;;;;2423160;52;20077;-73
2022/05/01 11:20:38;;;;;;;;;;;21.00;47.20;;;;;;2511825;52;20077;-75
2022/05/01 11:23:23;;;;;;;;;;;21.00;47.60;;;;;;2356281;53;20099;-72
2022/05/01 11:25:49;;;;;;;;;;;21.10;47.80;;;;;;2374817;53;20077;-72
2022/05/01 11:28:34;;;;;;;;;;;21.10;47.70;;;;;;2376439;53;20117;-73
2022/05/01 11:31:01;;;;;;;;;;;21.10;47.30;;;;;;2418293;52;20077;-73
2022/05/01 11:33:27;;;;;;;;;;;21.10;47.10;;;;;;2539100;52;20073;-74
2022/05/01 11:36:02;;;;;;;;;;;21.10;47.00;;;;;;2371528;53;20197;-73
2022/05/01 11:39:30;;;;;;;;;;;21.10;47.10;;;;;;2388780;52;20117;-75
2022/05/01 11:42:00;;;;;;;;;;;21.10;47.20;;;;;;2620034;52;20070;-73
2022/05/01 11:44:28;;;;;;;;;;;21.10;47.20;;;;;;2493067;52;20070;-73
2022/05/01 11:46:56;;;;;;;;;;;21.20;47.60;;;;;;2372848;53;20057;-74
2022/05/01 11:49:23;;;;;;;;;;;21.30;47.60;;;;;;2358016;52;20125;-73
2022/05/01 11:51:51;;;;;;;;;;;21.40;47.70;;;;;;2356559;53;20174;-75
2022/05/01 11:54:18;;;;;;;;;;;21.50;47.60;;;;;;2618925;52;20174;-74
2022/05/01 12:02:27;;;;;;;;;;;21.80;47.40;;;;;;2375107;52;20082;-73
2022/05/01 12:04:59;;;;;;;;;;;21.90;47.30;;;;;;2377119;53;20149;-75
2022/05/01 12:07:25;;;;;;;;;;;22.00;47.30;;;;;;2373884;53;20109;-73
2022/05/01 12:09:52;;;;;;;;;;;22.10;47.40;;;;;;2428739;52;20603;-72
2022/05/01 12:12:20;;;;;;;;;;;22.10;47.20;;;;;;2377422;52;20066;-72
2022/05/01 12:14:52;;;;;;;;;;;22.20;46.80;;;;;;2374318;53;20078;-74
2022/05/01 12:17:21;;;;;;;;;;;22.20;46.50;;;;;;2345353;53;20150;-73
2022/05/01 12:19:51;;;;;;;;;;;22.20;46.60;;;;;;2365974;52;20444;-73
2022/05/01 12:22:17;;;;;;;;;;;22.30;46.80;;;;;;2371981;52;20453;-74
2022/05/01 12:24:43;;;;;;;;;;;22.30;46.80;;;;;;2376117;52;20082;-72
2022/05/01 12:27:11;;;;;;;;;;;22.30;46.60;;;;;;2380180;52;20527;-73
2022/05/01 12:29:38;;;;;;;;;;;22.40;46.20;;;;;;2373898;53;20084;-72
2022/05/01 12:32:09;;;;;;;;;;;22.40;46.10;;;;;;2380406;53;20125;-74
2022/05/01 12:34:37;;;;;;;;;;;22.30;45.90;;;;;;2353112;53;20134;-73
2022/05/01 12:37:13;;;;;;;;;;;22.20;45.70;;;;;;2377775;52;20200;-73
2022/05/01 12:39:41;;;;;;;;;;;22.30;45.90;;;;;;2419409;53;20122;-73
2022/05/01 12:45:05;;;;;;;;;;;22.40;46.90;;;;;;2362186;53;20127;-74
2022/05/01 12:47:33;;;;;;;;;;;22.50;46.30;;;;;;2366995;52;20145;-74
2022/05/01 12:50:00;;;;;;;;;;;22.60;46.20;;;;;;2462441;52;20138;-75
2022/05/01 12:52:32;;;;;;;;;;;22.60;46.20;;;;;;2432184;52;20081;-74
2022/05/01 12:55:23;;;;;;;;;;;22.70;46.30;;;;;;2357959;52;20109;-76
2022/05/01 12:57:59;;;;;;;;;;;22.80;46.40;;;;;;2376616;52;20185;-76
2022/05/01 13:00:41;;;;;;;;;;;22.90;46.20;;;;;;2542852;52;20137;-74
2022/05/01 13:03:23;;;;;;;;;;;23.00;45.90;;;;;;2375761;53;20061;-75
2022/05/01 13:06:08;;;;;;;;;;;23.00;45.40;;;;;;2380648;52;20109;-75
2022/05/01 13:08:38;;;;;;;;;;;23.00;44.80;;;;;;2606733;52;20070;-75
2022/05/01 13:11:11;;;;;;;;;;;22.90;44.70;;;;;;2605662;52;20430;-75
2022/05/01 13:13:52;;;;;;;;;;;22.80;44.40;;;;;;2366952;53;20149;-73
2022/05/01 13:16:21;;;;;;;;;;;22.80;44.60;;;;;;2362224;53;20102;-76
2022/05/01 13:18:59;;;;;;;;;;;22.70;44.70;;;;;;2573775;52;20392;-74
2022/05/01 13:21:29;;;;;;;;;;;22.70;44.90;;;;;;2409589;52;20071;-74
2022/05/01 13:23:56;;;;;;;;;;;22.80;45.20;;;;;;2352632;53;20114;-76
2022/05/01 13:26:22;;;;;;;;;;;22.90;45.50;;;;;;2364778;53;20085;-75
2022/05/01 13:28:49;;;;;;;;;;;22.90;45.30;;;;;;2380612;52;20089;-73
2022/05/01 13:31:16;;;;;;;;;;;23.00;45.00;;;;;;2377503;53;20082;-75
2022/05/01 13:33:43;;;;;;;;;;;23.10;45.20;;;;;;2620929;52;20066;-74
2022/05/01 13:36:10;;;;;;;;;;;23.10;45.00;;;;;;2379653;53;20685;-74
2022/05/01 13:38:37;;;;;;;;;;;23.10;44.70;;;;;;2381661;53;20581;-76
2022/05/01 13:46:33;;;;;;;;;;;23.10;44.40;;;;;;2489250;52;20437;-75
2022/05/01 13:49:03;;;;;;;;;;;23.10;44.20;;;;;;2406998;52;20078;-75
2022/05/01 13:51:33;;;;;;;;;;;23.10;44.00;;;;;;2378158;53;20082;-74
2022/05/01 13:54:00;;;;;;;;;;;23.00;43.70;;;;;;2358911;53;20137;-75
2022/05/01 13:56:26;;;;;;;;;;;23.00;43.70;;;;;;2565545;52;20061;-75
2022/05/01 13:58:53;;;;;;;;;;;23.00;43.90;;;;;;2377835;53;20623;-75
2022/05/01 14:01:20;;;;;;;;;;;23.00;44.00;;;;;;2386761;52;20130;-75
2022/05/01 14:03:47;;;;;;;;;;;23.00;44.10;;;;;;2413172;52;20078;-74
2022/05/01 14:09:35;;;;;;;;;;;23.10;44.20;;;;;;2394522;52;20098;-74
2022/05/01 14:12:02;;;;;;;;;;;23.20;44.20;;;;;;2378099;53;20629;-75
2022/05/01 14:14:29;;;;;;;;;;;23.30;44.00;;;;;;2378024;53;20082;-74
2022/05/01 14:16:55;;;;;;;;;;;23.30;43.90;;;;;;2380136;52;20074;-74
2022/05/01 14:19:35;;;;;;;;;;;23.40;43.60;;;;;;2377877;53;20483;-74
2022/05/01 14:22:09;;;;;;;;;;;23.30;43.10;;;;;;2418691;52;20105;-76
2022/05/01 14:24:51;;;;;;;;;;;23.20;42.70;;;;;;2506688;52;20089;-75
2022/05/01 14:27:18;;;;;;;;;;;23.10;42.60;;;;;;2377522;53;20165;-75
2022/05/01 14:29:45;;;;;;;;;;;23.10;42.60;;;;;;2371584;53;20096;-76
2022/05/01 14:32:15;;;;;;;;;;;23.00;42.80;;;;;;2376204;53;20081;-78
2022/05/01 14:34:45;;;;;;;;;;;23.00;43.00;;;;;;2467468;52;20077;-76
2022/05/01 14:37:22;;;;;;;;;;;23.00;43.00;;;;;;2379306;53;20117;-75
2022/05/01 14:39:49;;;;;;;;;;;22.90;42.80;;;;;;2357667;53;20535;-73
2022/05/01 14:42:16;;;;;;;;;;;22.90;42.80;;;;;;2402590;52;20618;-77
2022/05/01 14:44:47;;;;;;;;;;;22.90;42.80;;;;;;2377084;53;20061;-75
2022/05/01 14:47:17;;;;;;;;;;;22.90;42.80;;;;;;2352014;53;20076;-75
2022/05/01 14:49:49;;;;;;;;;;;22.90;42.60;;;;;;2359364;53;20071;-74
2022/05/01 14:52:15;;;;;;;;;;;22.90;43.30;;;;;;2421606;52;20066;-75
2022/05/01 14:54:46;;;;;;;;;;;23.00;42.70;;;;;;2364741;53;20066;-76
2022/05/01 14:57:13;;;;;;;;;;;22.90;42.40;;;;;;2367811;53;20436;-77
2022/05/01 15:08:19;;;;;;;;;;;22.80;42.40;;;;;;2375029;53;20125;-74
2022/05/01 15:10:45;;;;;;;;;;;22.70;42.40;;;;;;2361849;53;20331;-74
2022/05/01 15:13:12;;;;;;;;;;;22.70;42.20;;;;;;2377495;53;20130;-77
2022/05/01 15:16:39;;;;;;;;;;;22.70;42.10;;;;;;2457665;52;20133;-76
2022/05/01 15:19:12;;;;;;;;;;;22.60;42.00;;;;;;2375225;53;20118;-75
2022/05/01 15:23:14;;;;;;;;;;;22.50;41.90;;;;;;2379524;53;20124;-74
2022/05/01 15:25:43;;;;;;;;;;;22.50;41.90;;;;;;2464080;52;3184744;-75